Time;durP1;ratioP1;P1;durP2;ratioP2;P2;SDS_P1;SDS_P2;PMS_P1;PMS_P2;Temp;Humidity;BMP_temperature;BMP_pressure;BME280_temperature;BME280_humidity;BME280_pressure;Samples;Min_cycle;Max_cycle;Signal;HPM_P1;HPM_P2
2021/12/29 00:02:03;;;;;;;8.52;3.10;;;9.90;99.90;;;;;;5032219;28;20041;-59
2021/12/29 00:04:31;;;;;;;9.93;3.10;;;9.90;99.90;;;;;;5032329;28;20106;-58
2021/12/29 00:06:58;;;;;;;6.72;3.03;;;9.90;99.90;;;;;;5032003;28;20029;-59
2021/12/29 00:09:23;;;;;;;6.60;2.80;;;9.90;99.90;;;;;;5030853;28;20386;-59
2021/12/29 00:11:50;;;;;;;5.13;2.67;;;9.90;99.90;;;;;;5031985;28;20071;-59
2021/12/29 00:14:16;;;;;;;6.07;2.40;;;9.90;99.90;;;;;;5031673;28;20595;-59
2021/12/29 00:16:42;;;;;;;8.32;2.83;;;10.00;99.90;;;;;;5031861;28;20029;-59
2021/12/29 00:19:08;;;;;;;7.88;2.83;;;9.90;99.90;;;;;;5031604;28;20052;-58
2021/12/29 00:21:35;;;;;;;6.80;3.13;;;9.90;99.90;;;;;;5030571;28;20021;-59
2021/12/29 00:24:03;;;;;;;8.77;3.58;;;9.90;99.90;;;;;;5032224;28;20032;-59
2021/12/29 00:26:31;;;;;;;6.13;3.88;;;9.90;99.90;;;;;;5031764;28;20042;-59
2021/12/29 00:28:59;;;;;;;8.40;4.32;;;9.90;99.90;;;;;;5031507;28;20159;-59
2021/12/29 00:31:26;;;;;;;8.38;4.45;;;9.90;99.90;;;;;;5031734;28;20021;-59
2021/12/29 00:33:51;;;;;;;10.18;4.38;;;9.80;99.90;;;;;;5031869;28;20087;-59
2021/12/29 00:36:17;;;;;;;10.23;5.18;;;9.90;99.90;;;;;;5031704;28;20029;-59
2021/12/29 00:38:45;;;;;;;9.57;4.45;;;9.90;99.90;;;;;;5029948;28;20430;-59
2021/12/29 00:41:11;;;;;;;7.75;4.50;;;9.90;99.90;;;;;;5031654;28;20021;-59
2021/12/29 00:43:36;;;;;;;6.38;4.55;;;9.90;99.90;;;;;;5031926;28;20110;-59
2021/12/29 00:46:02;;;;;;;10.48;5.00;;;9.90;99.90;;;;;;5031659;28;20036;-59
2021/12/29 00:48:35;;;;;;;11.98;4.88;;;9.90;99.90;;;;;;5031773;28;20487;-59
2021/12/29 00:51:02;;;;;;;8.15;4.30;;;9.90;99.90;;;;;;5031525;28;20029;-59
2021/12/29 00:53:28;;;;;;;8.93;4.72;;;9.90;99.90;;;;;;5031585;28;20037;-59
2021/12/29 00:55:53;;;;;;;8.57;4.55;;;9.90;99.90;;;;;;5031150;28;20021;-59
2021/12/29 00:58:19;;;;;;;7.50;4.40;;;9.90;99.90;;;;;;5031054;28;20409;-59
2021/12/29 01:00:45;;;;;;;6.95;4.05;;;9.90;99.90;;;;;;5031080;28;20037;-59
2021/12/29 01:03:11;;;;;;;8.85;4.53;;;9.90;99.90;;;;;;5029651;28;20037;-59
2021/12/29 01:05:37;;;;;;;8.07;3.95;;;9.90;99.90;;;;;;5031014;28;20158;-59
2021/12/29 01:08:04;;;;;;;6.88;4.03;;;9.90;99.90;;;;;;5030974;28;20033;-59
2021/12/29 01:10:30;;;;;;;10.00;4.00;;;9.90;99.90;;;;;;5029858;28;20026;-59
2021/12/29 01:12:59;;;;;;;8.85;4.18;;;9.90;99.90;;;;;;5031361;28;20040;-59
2021/12/29 01:15:33;;;;;;;8.43;3.88;;;9.90;99.90;;;;;;5031371;28;20037;-59
2021/12/29 01:18:01;;;;;;;6.47;3.88;;;9.90;99.90;;;;;;5031243;28;20021;-59
2021/12/29 01:20:28;;;;;;;9.15;4.05;;;9.90;99.90;;;;;;5031527;28;20021;-59
2021/12/29 01:22:54;;;;;;;10.18;4.07;;;9.90;99.90;;;;;;5030920;28;20025;-59
2021/12/29 01:25:21;;;;;;;11.13;4.70;;;9.90;99.90;;;;;;5030670;28;20065;-59
2021/12/29 01:27:48;;;;;;;8.73;3.70;;;9.90;99.90;;;;;;5031333;28;20029;-59
2021/12/29 01:30:16;;;;;;;16.42;5.38;;;9.90;99.90;;;;;;5030669;28;20029;-59
2021/12/29 01:32:43;;;;;;;17.70;4.38;;;9.90;99.90;;;;;;5030315;28;20116;-59
2021/12/29 01:35:10;;;;;;;12.57;4.70;;;9.90;99.90;;;;;;5030673;28;20087;-59
2021/12/29 01:37:36;;;;;;;8.55;4.18;;;9.90;99.90;;;;;;5030631;28;20028;-59
2021/12/29 01:40:06;;;;;;;12.07;4.50;;;9.90;99.90;;;;;;5030093;28;20064;-59
2021/12/29 01:42:32;;;;;;;7.63;3.65;;;9.90;99.90;;;;;;5029180;28;20029;-59
2021/12/29 01:44:58;;;;;;;8.50;3.90;;;9.90;99.90;;;;;;5030600;28;20472;-59
2021/12/29 01:47:29;;;;;;;7.40;3.40;;;9.90;99.90;;;;;;5029052;28;20120;-59
2021/12/29 01:49:55;;;;;;;8.25;3.42;;;9.90;99.90;;;;;;5029525;28;20021;-59
2021/12/29 01:52:25;;;;;;;9.48;3.88;;;9.90;99.90;;;;;;5028717;28;20064;-59
2021/12/29 01:54:51;;;;;;;6.85;3.40;;;9.90;99.90;;;;;;5030667;28;20499;-59
2021/12/29 01:57:19;;;;;;;7.82;3.60;;;9.90;99.90;;;;;;5029020;28;20088;-59
2021/12/29 01:59:44;;;;;;;9.63;3.83;;;9.90;99.90;;;;;;5030747;28;20069;-59
2021/12/29 02:02:14;;;;;;;8.18;3.45;;;10.00;99.90;;;;;;5030420;28;20052;-59
2021/12/29 02:04:46;;;;;;;9.57;3.50;;;10.00;99.90;;;;;;5029049;28;20052;-60
2021/12/29 02:07:12;;;;;;;6.68;3.53;;;10.00;99.90;;;;;;5030216;28;20033;-59
2021/12/29 02:09:39;;;;;;;10.95;3.55;;;10.00;99.90;;;;;;5028810;28;20030;-59
2021/12/29 02:12:05;;;;;;;10.18;3.22;;;10.00;99.90;;;;;;5030161;28;20390;-59
2021/12/29 02:14:32;;;;;;;9.05;3.47;;;10.00;99.90;;;;;;5030124;28;20029;-59
2021/12/29 02:16:59;;;;;;;8.15;3.47;;;10.00;99.90;;;;;;5030204;28;20034;-59
2021/12/29 02:19:26;;;;;;;7.63;3.30;;;10.00;99.90;;;;;;5030115;28;20111;-59
2021/12/29 02:22:03;;;;;;;15.48;4.20;;;9.90;99.90;;;;;;5029292;28;20018;-59
2021/12/29 02:24:41;;;;;;;6.68;3.28;;;9.90;99.90;;;;;;5031218;28;20017;-59
2021/12/29 02:27:10;;;;;;;11.90;3.22;;;9.90;99.90;;;;;;5030719;28;20288;-59
2021/12/29 02:29:38;;;;;;;6.72;3.17;;;9.90;99.90;;;;;;5030854;28;20032;-59
2021/12/29 02:32:03;;;;;;;7.72;3.47;;;9.90;99.90;;;;;;5030831;28;20029;-59
2021/12/29 02:34:30;;;;;;;8.88;3.38;;;9.90;99.90;;;;;;5030995;28;20026;-59
2021/12/29 02:36:58;;;;;;;10.60;3.38;;;9.90;99.90;;;;;;5030445;28;20029;-59
2021/12/29 02:39:24;;;;;;;7.30;3.45;;;9.90;99.90;;;;;;5029031;28;20479;-59
2021/12/29 02:41:54;;;;;;;6.35;3.65;;;9.90;99.90;;;;;;5029136;28;20033;-59
2021/12/29 02:44:28;;;;;;;6.72;3.60;;;9.90;99.90;;;;;;5030793;28;20075;-59
2021/12/29 02:46:55;;;;;;;9.35;3.53;;;9.90;99.90;;;;;;5029332;28;20487;-59
2021/12/29 02:49:22;;;;;;;7.45;3.75;;;9.90;99.90;;;;;;5030652;28;20442;-59
2021/12/29 02:51:47;;;;;;;6.95;3.60;;;9.90;99.90;;;;;;5029181;28;20033;-59
2021/12/29 02:54:14;;;;;;;7.10;3.90;;;9.90;99.90;;;;;;5030593;28;20034;-59
2021/12/29 02:56:39;;;;;;;5.35;3.60;;;9.90;99.90;;;;;;5030353;28;20030;-59
2021/12/29 02:59:05;;;;;;;6.40;3.97;;;9.90;99.90;;;;;;5030526;28;20045;-59
2021/12/29 03:01:31;;;;;;;8.75;4.55;;;9.90;99.90;;;;;;5033203;28;20021;-59
2021/12/29 03:03:58;;;;;;;7.88;4.10;;;10.00;99.90;;;;;;5034167;28;20026;-60
2021/12/29 03:06:24;;;;;;;7.53;3.85;;;10.00;99.90;;;;;;5034300;28;20458;-59
2021/12/29 03:08:51;;;;;;;5.40;3.60;;;9.90;99.90;;;;;;5033969;28;20086;-59
2021/12/29 03:11:17;;;;;;;6.07;3.50;;;10.00;99.90;;;;;;5032573;28;20127;-59
2021/12/29 03:13:42;;;;;;;6.10;3.80;;;9.90;99.90;;;;;;5034156;28;20506;-59
2021/12/29 03:16:09;;;;;;;6.50;3.15;;;9.90;99.90;;;;;;5034103;28;20029;-59
2021/12/29 03:18:35;;;;;;;5.25;3.30;;;9.90;99.90;;;;;;5034228;28;20025;-59
2021/12/29 03:21:01;;;;;;;12.27;3.63;;;9.90;99.90;;;;;;5034256;28;20032;-59
2021/12/29 03:23:27;;;;;;;6.95;3.75;;;9.90;99.90;;;;;;5033392;28;20081;-59
2021/12/29 03:25:53;;;;;;;8.10;3.30;;;9.90;99.90;;;;;;5033271;28;20451;-59
2021/12/29 03:28:22;;;;;;;8.35;3.70;;;9.90;99.90;;;;;;5033276;28;20100;-59
2021/12/29 03:30:51;;;;;;;10.80;3.88;;;9.90;99.90;;;;;;5031656;28;20029;-59
2021/12/29 03:33:17;;;;;;;10.18;4.05;;;9.90;99.90;;;;;;5033833;28;20513;-59
2021/12/29 03:35:53;;;;;;;11.18;4.28;;;9.90;99.90;;;;;;5033516;28;20479;-59
2021/12/29 03:38:22;;;;;;;6.60;3.60;;;9.90;99.90;;;;;;5033657;28;20025;-59
2021/12/29 03:40:48;;;;;;;8.82;3.92;;;9.80;99.90;;;;;;5033704;28;20525;-59
2021/12/29 03:43:15;;;;;;;5.55;3.88;;;9.80;99.90;;;;;;5033780;28;20036;-59
2021/12/29 03:45:44;;;;;;;8.60;4.38;;;9.80;99.90;;;;;;5033621;28;20029;-59
2021/12/29 03:48:11;;;;;;;8.50;4.32;;;9.80;99.90;;;;;;5033232;28;20459;-59
2021/12/29 03:50:37;;;;;;;8.00;3.85;;;9.80;99.90;;;;;;5033661;28;20427;-59
2021/12/29 03:53:03;;;;;;;8.80;3.40;;;9.80;99.90;;;;;;5033542;28;20454;-59
2021/12/29 03:55:29;;;;;;;11.27;3.83;;;9.80;99.90;;;;;;5033620;28;20095;-59
2021/12/29 03:57:55;;;;;;;8.20;4.43;;;9.90;99.90;;;;;;5032797;28;20390;-59
2021/12/29 04:00:22;;;;;;;7.55;4.38;;;9.90;99.90;;;;;;5033590;28;20116;-59
2021/12/29 04:02:48;;;;;;;6.53;4.13;;;9.90;99.90;;;;;;5033823;28;20041;-59
2021/12/29 04:05:18;;;;;;;9.85;4.18;;;9.80;99.90;;;;;;5033693;28;20036;-59
2021/12/29 04:07:44;;;;;;;9.90;4.95;;;9.90;99.90;;;;;;5033872;28;20021;-59
2021/12/29 04:10:10;;;;;;;8.73;4.40;;;9.90;99.90;;;;;;5033707;28;20493;-59
2021/12/29 04:12:39;;;;;;;8.25;3.90;;;9.90;99.90;;;;;;5032747;28;20018;-60
2021/12/29 04:15:05;;;;;;;7.50;3.35;;;9.80;99.90;;;;;;5032942;28;20160;-59
2021/12/29 04:17:37;;;;;;;8.05;3.53;;;9.80;99.90;;;;;;5032728;28;20025;-59
2021/12/29 04:23:02;;;;;;;6.95;3.25;;;9.70;99.90;;;;;;5032905;28;20036;-59
2021/12/29 04:25:29;;;;;;;8.55;3.20;;;9.70;99.90;;;;;;5033058;28;20029;-59
2021/12/29 04:27:57;;;;;;;7.25;2.90;;;9.70;99.90;;;;;;5032744;28;20034;-59
2021/12/29 04:30:24;;;;;;;9.38;2.65;;;9.70;99.90;;;;;;5032798;28;20049;-59
2021/12/29 04:32:52;;;;;;;8.35;3.15;;;9.70;99.90;;;;;;5032884;28;20048;-59
2021/12/29 04:35:19;;;;;;;10.73;2.80;;;9.70;99.90;;;;;;5031148;28;20495;-59
2021/12/29 04:37:47;;;;;;;7.28;2.83;;;9.70;99.90;;;;;;5032726;28;20044;-59
2021/12/29 04:40:13;;;;;;;9.27;2.78;;;9.80;99.90;;;;;;5031779;28;20483;-59
2021/12/29 04:42:39;;;;;;;8.32;3.03;;;9.70;99.90;;;;;;5032644;28;20024;-59
2021/12/29 04:45:05;;;;;;;9.85;3.08;;;9.70;99.90;;;;;;5032984;28;20021;-59
2021/12/29 04:47:31;;;;;;;7.00;2.92;;;9.70;99.90;;;;;;5032734;28;20033;-59
2021/12/29 04:50:00;;;;;;;9.43;2.83;;;9.70;99.90;;;;;;5033105;28;20030;-59
2021/12/29 04:52:31;;;;;;;6.57;2.63;;;9.70;99.90;;;;;;5032924;28;20608;-59
2021/12/29 04:54:57;;;;;;;10.18;3.42;;;9.70;99.90;;;;;;5033021;28;20049;-59
2021/12/29 04:57:23;;;;;;;10.13;3.20;;;9.60;99.90;;;;;;5032358;28;20075;-59
2021/12/29 04:59:49;;;;;;;9.30;3.30;;;9.70;99.90;;;;;;5031940;28;20440;-59
2021/12/29 05:02:14;;;;;;;8.05;3.10;;;9.70;99.90;;;;;;5031366;28;20360;-59
2021/12/29 05:04:55;;;;;;;8.77;2.78;;;9.80;99.90;;;;;;5032230;28;20049;-59
2021/12/29 05:10:05;;;;;;;17.98;3.05;;;9.70;99.90;;;;;;5032339;28;20067;-59
2021/12/29 05:12:31;;;;;;;8.85;3.33;;;9.70;99.90;;;;;;5031219;28;20060;-59
2021/12/29 05:14:56;;;;;;;9.65;3.17;;;9.70;99.90;;;;;;5031363;28;20026;-59
2021/12/29 05:17:22;;;;;;;9.43;3.35;;;9.70;99.90;;;;;;5031326;28;20048;-59
2021/12/29 05:19:48;;;;;;;7.45;3.20;;;9.70;99.90;;;;;;5031478;28;20029;-59
2021/12/29 05:22:13;;;;;;;12.27;3.50;;;9.60;99.90;;;;;;5031601;28;20119;-59
2021/12/29 05:24:39;;;;;;;10.32;3.40;;;9.50;99.90;;;;;;5030913;28;20110;-59
2021/12/29 05:27:05;;;;;;;11.27;3.55;;;9.50;99.90;;;;;;5031604;28;20045;-59
2021/12/29 05:29:30;;;;;;;8.35;3.33;;;9.50;99.90;;;;;;5031356;28;20029;-59
2021/12/29 05:31:56;;;;;;;9.40;3.33;;;9.40;99.90;;;;;;5031888;28;20262;-59
2021/12/29 05:34:22;;;;;;;10.07;3.70;;;9.40;99.90;;;;;;5031679;28;20037;-59
2021/12/29 05:36:47;;;;;;;16.77;3.70;;;9.30;99.90;;;;;;5031498;28;20041;-59
2021/12/29 05:39:13;;;;;;;11.93;3.60;;;9.30;99.90;;;;;;5031291;28;20033;-59
2021/12/29 05:41:39;;;;;;;9.00;3.30;;;9.30;99.90;;;;;;5031415;28;20483;-59
2021/12/29 05:44:05;;;;;;;9.75;3.47;;;9.30;99.90;;;;;;5031562;28;20080;-59
2021/12/29 05:46:31;;;;;;;10.55;3.33;;;9.30;99.90;;;;;;5031928;28;20556;-59
2021/12/29 05:48:56;;;;;;;10.90;3.40;;;9.30;99.90;;;;;;5031447;28;20065;-59
2021/12/29 05:51:22;;;;;;;12.88;3.20;;;9.30;99.90;;;;;;5031384;28;20061;-59
2021/12/29 05:53:48;;;;;;;9.65;2.80;;;9.20;99.90;;;;;;5029974;28;20048;-59
2021/12/29 05:56:13;;;;;;;9.82;3.22;;;9.10;99.90;;;;;;5031170;28;20037;-59
2021/12/29 05:58:39;;;;;;;12.27;3.28;;;9.10;99.90;;;;;;5031634;28;20036;-59
2021/12/29 06:01:05;;;;;;;9.23;3.05;;;9.10;99.90;;;;;;5030994;28;20037;-59
2021/12/29 06:03:31;;;;;;;11.05;3.22;;;9.10;99.90;;;;;;5031300;28;20029;-59
2021/12/29 06:05:57;;;;;;;7.90;3.03;;;9.00;99.90;;;;;;5031263;28;20034;-59
2021/12/29 06:08:22;;;;;;;9.85;3.20;;;9.00;99.90;;;;;;5031333;28;20033;-59
2021/12/29 06:10:48;;;;;;;9.82;3.03;;;9.00;99.90;;;;;;5030901;28;20079;-59
2021/12/29 06:13:14;;;;;;;7.32;3.15;;;9.00;99.90;;;;;;5031455;28;20049;-59
2021/12/29 06:15:40;;;;;;;10.05;3.28;;;9.00;99.90;;;;;;5030799;28;20037;-59
2021/12/29 06:18:05;;;;;;;8.40;3.10;;;8.90;99.90;;;;;;5029748;28;20025;-59
2021/12/29 06:20:31;;;;;;;8.32;3.03;;;8.90;99.90;;;;;;5029744;28;20018;-59
2021/12/29 06:22:57;;;;;;;8.48;3.33;;;8.90;99.90;;;;;;5030754;28;20030;-59
2021/12/29 06:25:23;;;;;;;8.05;3.03;;;8.90;99.90;;;;;;5029512;28;20522;-59
2021/12/29 06:27:50;;;;;;;8.05;3.08;;;8.90;99.90;;;;;;5030777;28;20030;-59
2021/12/29 06:30:16;;;;;;;8.95;3.30;;;8.90;99.90;;;;;;5031004;28;20100;-59
2021/12/29 06:32:44;;;;;;;8.68;2.65;;;8.90;99.90;;;;;;5030857;28;20021;-59
2021/12/29 06:35:12;;;;;;;9.48;3.28;;;8.80;99.90;;;;;;5031329;28;20017;-59
2021/12/29 06:37:38;;;;;;;9.60;3.17;;;8.80;99.90;;;;;;5033487;28;20542;-59
2021/12/29 06:40:05;;;;;;;9.88;3.53;;;8.80;99.90;;;;;;5034481;28;20093;-59
2021/12/29 06:42:31;;;;;;;10.95;3.20;;;8.80;99.90;;;;;;5034721;28;20021;-59
2021/12/29 06:44:57;;;;;;;11.18;4.10;;;8.80;99.90;;;;;;5033522;28;20117;-59
2021/12/29 06:47:23;;;;;;;8.52;3.58;;;8.80;99.90;;;;;;5034501;28;20025;-59
2021/12/29 06:49:49;;;;;;;14.45;3.97;;;8.80;99.90;;;;;;5033357;28;20486;-59
2021/12/29 06:52:15;;;;;;;12.00;4.40;;;8.80;99.90;;;;;;5033624;28;20090;-59
2021/12/29 06:54:41;;;;;;;11.77;4.60;;;8.80;99.90;;;;;;5034461;28;20072;-59
2021/12/29 06:57:07;;;;;;;12.52;4.70;;;8.70;99.90;;;;;;5034558;28;20437;-59
2021/12/29 06:59:33;;;;;;;15.15;4.90;;;8.70;99.90;;;;;;5033514;28;20021;-59
2021/12/29 07:01:58;;;;;;;15.48;4.70;;;8.70;99.90;;;;;;5033606;28;20359;-59
2021/12/29 07:04:25;;;;;;;19.25;5.47;;;8.60;99.90;;;;;;5034775;28;20025;-59
2021/12/29 07:06:51;;;;;;;12.95;4.20;;;8.70;99.90;;;;;;5034298;28;20026;-59
2021/12/29 07:09:18;;;;;;;17.77;3.97;;;8.80;99.90;;;;;;5034443;28;20029;-59
2021/12/29 07:11:43;;;;;;;10.15;3.90;;;8.80;99.90;;;;;;5033575;28;20036;-59
2021/12/29 07:14:09;;;;;;;14.80;4.60;;;8.80;99.90;;;;;;5033609;28;20030;-59
2021/12/29 07:16:37;;;;;;;14.38;4.35;;;8.70;99.90;;;;;;5034180;28;20053;-59
2021/12/29 07:19:03;;;;;;;10.75;3.88;;;8.70;99.90;;;;;;5034675;28;20108;-59
2021/12/29 07:21:29;;;;;;;13.48;4.22;;;8.70;99.90;;;;;;5034450;28;20400;-59
2021/12/29 07:23:55;;;;;;;17.15;4.38;;;8.60;99.90;;;;;;5033782;28;20091;-59
2021/12/29 07:26:22;;;;;;;13.32;4.55;;;8.70;99.90;;;;;;5033621;28;20124;-59
2021/12/29 07:28:48;;;;;;;17.95;5.32;;;8.70;99.90;;;;;;5033975;28;20029;-59
2021/12/29 07:31:14;;;;;;;13.05;4.28;;;8.70;99.90;;;;;;5033922;28;20026;-59
2021/12/29 07:33:39;;;;;;;14.57;4.75;;;8.80;99.90;;;;;;5033779;28;20389;-59
2021/12/29 07:36:05;;;;;;;13.30;4.20;;;8.80;99.90;;;;;;5033462;28;20025;-59
2021/12/29 07:38:32;;;;;;;23.88;4.88;;;8.80;99.90;;;;;;5032095;28;20036;-59
2021/12/29 07:40:58;;;;;;;13.43;4.40;;;8.90;99.90;;;;;;5033683;28;20026;-59
2021/12/29 07:43:24;;;;;;;16.73;4.95;;;8.80;99.90;;;;;;5034211;28;20026;-59
2021/12/29 07:45:50;;;;;;;11.02;3.97;;;8.80;99.90;;;;;;5032707;28;20026;-59
2021/12/29 07:48:18;;;;;;;8.35;4.13;;;8.80;99.90;;;;;;5033212;28;20100;-59
2021/12/29 07:50:44;;;;;;;15.80;4.20;;;8.80;99.90;;;;;;5033842;28;20028;-59
2021/12/29 07:53:10;;;;;;;13.80;4.18;;;8.70;99.90;;;;;;5033513;28;20386;-59
2021/12/29 07:55:36;;;;;;;16.52;3.58;;;8.70;99.90;;;;;;5033876;28;20119;-59
2021/12/29 07:58:01;;;;;;;14.18;4.00;;;8.70;99.90;;;;;;5033185;28;20379;-59
2021/12/29 08:00:28;;;;;;;16.10;4.28;;;8.80;99.90;;;;;;5034490;28;20030;-59
2021/12/29 08:02:54;;;;;;;12.77;4.30;;;8.80;99.90;;;;;;5034558;28;20474;-59
2021/12/29 08:05:20;;;;;;;12.40;4.05;;;8.70;99.90;;;;;;5033884;28;20025;-59
2021/12/29 08:07:47;;;;;;;11.82;4.22;;;8.70;99.90;;;;;;5033945;28;20025;-59
2021/12/29 08:10:13;;;;;;;13.60;5.18;;;8.70;99.90;;;;;;5032527;28;20382;-59
2021/12/29 08:12:39;;;;;;;12.75;5.70;;;8.70;99.90;;;;;;5033614;28;20478;-59
2021/12/29 08:15:05;;;;;;;22.58;8.77;;;8.70;99.90;;;;;;5033407;28;20128;-59
2021/12/29 08:17:32;;;;;;;35.88;15.43;;;8.70;99.90;;;;;;5033544;28;20018;-59
2021/12/29 08:19:59;;;;;;;28.23;11.63;;;8.70;99.90;;;;;;5032139;28;20025;-59
2021/12/29 08:22:25;;;;;;;34.78;12.40;;;8.70;99.90;;;;;;5033344;28;20053;-59
2021/12/29 08:24:50;;;;;;;31.38;13.68;;;8.70;99.90;;;;;;5033370;28;20107;-59
2021/12/29 08:27:16;;;;;;;26.77;12.00;;;8.70;99.90;;;;;;5033196;28;20428;-59
2021/12/29 08:29:42;;;;;;;25.05;8.13;;;8.80;99.90;;;;;;5033424;28;20031;-59
2021/12/29 08:32:08;;;;;;;20.45;7.90;;;8.80;99.90;;;;;;5033901;28;20078;-59
2021/12/29 08:34:33;;;;;;;16.67;5.30;;;8.80;99.90;;;;;;5033834;28;20057;-59
2021/12/29 08:36:59;;;;;;;10.63;6.05;;;8.80;99.90;;;;;;5033313;28;20056;-59
2021/12/29 08:39:25;;;;;;;13.20;5.18;;;8.80;99.90;;;;;;5033520;28;20538;-59
2021/12/29 08:41:51;;;;;;;11.32;3.70;;;8.80;99.90;;;;;;5031798;28;20021;-59
2021/12/29 08:44:16;;;;;;;17.08;4.93;;;8.80;99.90;;;;;;5032706;28;20030;-59
2021/12/29 08:46:43;;;;;;;12.02;4.38;;;8.90;99.90;;;;;;5032513;28;20045;-59
2021/12/29 08:49:09;;;;;;;14.15;3.92;;;8.90;99.90;;;;;;5033019;28;20029;-59
2021/12/29 08:51:35;;;;;;;9.88;3.97;;;8.90;99.90;;;;;;5032612;28;20368;-58
2021/12/29 08:54:00;;;;;;;11.82;3.80;;;8.90;99.90;;;;;;5033414;28;20026;-59
2021/12/29 08:56:26;;;;;;;11.43;4.53;;;8.90;99.90;;;;;;5033214;28;20396;-58
2021/12/29 08:58:53;;;;;;;7.35;4.25;;;8.90;99.90;;;;;;5033138;28;20021;-58
2021/12/29 09:01:20;;;;;;;14.57;4.50;;;8.90;99.90;;;;;;5032763;28;20052;-58
2021/12/29 09:03:48;;;;;;;12.13;3.72;;;8.90;99.90;;;;;;5031550;28;20022;-55
2021/12/29 09:06:15;;;;;;;13.52;4.65;;;8.90;99.90;;;;;;5032378;28;20026;-56
2021/12/29 09:08:41;;;;;;;14.80;4.68;;;8.80;99.90;;;;;;5032157;28;20025;-56
2021/12/29 09:11:07;;;;;;;13.85;5.53;;;8.90;99.90;;;;;;5032753;28;20056;-56
2021/12/29 09:13:33;;;;;;;14.00;6.20;;;8.90;99.90;;;;;;5034001;28;20088;-57
2021/12/29 09:16:00;;;;;;;13.88;5.90;;;8.90;99.90;;;;;;5032211;28;20025;-57
2021/12/29 09:18:29;;;;;;;18.48;5.40;;;8.90;99.90;;;;;;5030479;28;20077;-57
2021/12/29 09:20:58;;;;;;;10.68;4.25;;;8.90;99.90;;;;;;5031298;28;20376;-57
2021/12/29 09:23:23;;;;;;;13.35;4.65;;;8.90;99.90;;;;;;5030897;28;20548;-57
2021/12/29 09:25:49;;;;;;;12.88;3.63;;;8.90;99.90;;;;;;5031591;28;20041;-57
2021/12/29 09:28:18;;;;;;;11.02;3.53;;;8.90;99.90;;;;;;5032182;28;20025;-57
2021/12/29 09:30:46;;;;;;;15.15;3.63;;;8.90;99.90;;;;;;5031932;28;20053;-57
2021/12/29 09:33:15;;;;;;;15.10;4.00;;;9.00;99.90;;;;;;5032147;28;20486;-57
2021/12/29 09:35:40;;;;;;;15.82;3.65;;;8.90;99.90;;;;;;5031942;28;20021;-57
2021/12/29 09:38:08;;;;;;;15.10;3.78;;;9.00;99.90;;;;;;5031683;28;20040;-57
2021/12/29 09:40:35;;;;;;;11.45;3.92;;;9.00;99.90;;;;;;5032236;28;20467;-58
2021/12/29 09:43:01;;;;;;;15.40;4.05;;;8.90;99.90;;;;;;5030602;28;20022;-57
2021/12/29 09:45:27;;;;;;;16.55;5.30;;;9.00;99.90;;;;;;5031895;28;20101;-57
2021/12/29 09:47:56;;;;;;;17.17;5.00;;;9.00;99.90;;;;;;5032260;28;20441;-57
2021/12/29 09:50:22;;;;;;;16.65;5.18;;;9.00;99.90;;;;;;5031927;28;20104;-57
2021/12/29 09:52:48;;;;;;;13.88;4.35;;;9.00;99.90;;;;;;5014177;28;20446;-57
2021/12/29 09:55:16;;;;;;;12.43;5.22;;;9.10;99.90;;;;;;5032214;28;20499;-57
2021/12/29 09:57:45;;;;;;;20.48;10.95;;;9.10;99.90;;;;;;5032203;28;20021;-58
2021/12/29 10:00:19;;;;;;;19.55;9.35;;;9.20;99.90;;;;;;5033503;28;20025;-58
2021/12/29 10:02:46;;;;;;;21.73;9.98;;;9.20;99.90;;;;;;5033060;28;20041;-58
2021/12/29 10:05:12;;;;;;;20.58;9.52;;;9.30;99.90;;;;;;5033157;28;20111;-58
2021/12/29 10:07:37;;;;;;;19.23;10.23;;;9.30;99.90;;;;;;5031667;28;20029;-58
2021/12/29 10:10:16;;;;;;;25.13;12.63;;;9.40;99.90;;;;;;5032478;28;20045;-56
2021/12/29 10:12:43;;;;;;;23.40;8.10;;;9.40;99.90;;;;;;5034934;28;20433;-57
2021/12/29 10:15:08;;;;;;;22.10;7.78;;;9.50;99.90;;;;;;5036026;28;20029;-57
2021/12/29 10:17:34;;;;;;;21.20;9.25;;;9.50;99.90;;;;;;5035953;28;20025;-56
2021/12/29 10:20:14;;;;;;;23.02;8.98;;;9.50;99.90;;;;;;5036104;28;20034;-56
2021/12/29 10:22:41;;;;;;;19.83;8.98;;;9.50;99.90;;;;;;5035793;28;20415;-57
2021/12/29 10:25:16;;;;;;;21.73;8.52;;;9.60;99.90;;;;;;5036188;28;20052;-56
2021/12/29 10:27:42;;;;;;;16.15;6.65;;;9.70;99.90;;;;;;5036216;28;20041;-57
2021/12/29 10:30:23;;;;;;;26.73;8.90;;;9.70;99.90;;;;;;5035219;28;20491;-56
2021/12/29 10:32:51;;;;;;;21.20;8.55;;;9.70;99.90;;;;;;5035526;28;20047;-56
2021/12/29 10:35:26;;;;;;;30.27;7.70;;;9.70;99.90;;;;;;5036196;28;20112;-57
2021/12/29 10:37:54;;;;;;;24.08;7.70;;;9.70;99.90;;;;;;5035916;28;20025;-58
2021/12/29 10:40:31;;;;;;;18.83;7.78;;;9.80;99.90;;;;;;5035855;28;20494;-58
2021/12/29 10:42:59;;;;;;;28.33;9.52;;;9.90;99.90;;;;;;5035882;28;20049;-57
2021/12/29 10:45:46;;;;;;;19.85;7.15;;;9.90;99.90;;;;;;5035387;28;20021;-57
2021/12/29 10:48:20;;;;;;;18.00;6.10;;;9.90;99.90;;;;;;5035395;28;20120;-58
2021/12/29 10:50:57;;;;;;;23.52;6.75;;;9.90;99.90;;;;;;5035906;28;20433;-58
2021/12/29 10:53:23;;;;;;;20.02;7.00;;;10.00;99.90;;;;;;5035483;28;20022;-58
2021/12/29 10:55:49;;;;;;;22.38;7.57;;;10.00;99.90;;;;;;5036116;28;20099;-57
2021/12/29 10:58:18;;;;;;;19.00;4.88;;;10.00;99.90;;;;;;5036195;28;20491;-58
2021/12/29 11:00:48;;;;;;;20.40;6.47;;;9.90;99.90;;;;;;5036621;28;20060;-58
2021/12/29 11:03:21;;;;;;;16.58;5.47;;;9.90;99.90;;;;;;5041913;28;20021;-58
2021/12/29 11:05:53;;;;;;;18.75;6.28;;;10.00;99.90;;;;;;5034930;28;20064;-58
2021/12/29 11:08:19;;;;;;;23.73;6.00;;;10.00;99.90;;;;;;5035248;28;20398;-58
2021/12/29 11:10:46;;;;;;;20.90;6.70;;;10.00;99.90;;;;;;5034948;28;20025;-58
2021/12/29 11:13:22;;;;;;;13.52;4.72;;;10.10;99.90;;;;;;5035539;28;20037;-58
2021/12/29 11:15:51;;;;;;;18.02;3.92;;;10.10;99.90;;;;;;5034994;28;20033;-58
2021/12/29 11:18:16;;;;;;;13.93;4.15;;;10.10;99.90;;;;;;5035415;28;20052;-58
2021/12/29 11:20:42;;;;;;;16.02;4.90;;;10.10;99.90;;;;;;5034427;28;20475;-58
2021/12/29 11:23:16;;;;;;;18.73;4.45;;;10.10;99.90;;;;;;5034772;28;20026;-58
2021/12/29 11:25:43;;;;;;;13.98;3.30;;;10.10;99.90;;;;;;5033891;28;20037;-58
2021/12/29 11:28:21;;;;;;;14.68;3.33;;;10.10;99.90;;;;;;5035358;28;20437;-58
2021/12/29 11:30:48;;;;;;;8.63;2.63;;;10.10;99.90;;;;;;5035946;28;20053;-58
2021/12/29 11:33:14;;;;;;;9.77;2.53;;;10.10;99.90;;;;;;5035609;28;20446;-59
2021/12/29 11:35:47;;;;;;;15.25;3.38;;;10.10;99.90;;;;;;5035902;28;20620;-58
2021/12/29 11:38:13;;;;;;;;;;;10.00;99.90;;;;;;5035853;28;20043;-57
2021/12/29 11:40:41;;;;;;;14.70;3.90;;;10.00;99.90;;;;;;5035672;28;19932;-58
2021/12/29 11:43:08;;;;;;;12.00;3.40;;;9.90;99.90;;;;;;5036314;28;20053;-59
2021/12/29 11:45:36;;;;;;;10.55;3.00;;;9.90;99.90;;;;;;5037112;28;20017;-58
2021/12/29 11:48:02;;;;;;;13.98;3.90;;;9.90;99.90;;;;;;5033516;28;20092;-57
2021/12/29 11:50:32;;;;;;;14.77;4.35;;;9.80;99.90;;;;;;5033602;28;20056;-57
2021/12/29 11:53:29;;;;;;;15.85;3.95;;;9.80;99.90;;;;;;5035006;28;20033;-58
2021/12/29 11:56:06;;;;;;;11.82;4.28;;;9.70;99.90;;;;;;5034913;28;20479;-58
2021/12/29 11:58:33;;;;;;;13.75;4.03;;;9.70;99.90;;;;;;5034392;28;20057;-58
2021/12/29 12:01:23;;;;;;;11.15;4.10;;;9.70;99.90;;;;;;5034357;28;20033;-58
2021/12/29 12:04:02;;;;;;;15.27;6.50;;;9.70;99.90;;;;;;5034398;28;20034;-58
2021/12/29 12:06:38;;;;;;;11.85;5.30;;;9.70;99.90;;;;;;5034575;28;20029;-57
2021/12/29 12:09:25;;;;;;;10.13;5.15;;;9.70;99.90;;;;;;5034310;28;20132;-58
2021/12/29 12:11:57;;;;;;;14.63;5.65;;;9.70;99.90;;;;;;5034621;28;20021;-57
2021/12/29 12:14:24;;;;;;;14.13;6.45;;;9.60;99.90;;;;;;5034713;28;20056;-57
2021/12/29 12:17:07;;;;;;;13.05;6.35;;;9.70;99.90;;;;;;5033874;28;20029;-57
2021/12/29 12:19:33;;;;;;;12.20;5.50;;;9.70;99.90;;;;;;5034104;28;20018;-58
2021/12/29 12:22:10;;;;;;;11.80;6.57;;;9.70;99.90;;;;;;5033832;28;20028;-56
2021/12/29 12:25:01;;;;;;;13.77;6.18;;;9.70;99.90;;;;;;5034210;28;20454;-58
2021/12/29 12:27:29;;;;;;;14.25;7.47;;;9.70;99.90;;;;;;5033840;28;20077;-58
2021/12/29 12:30:03;;;;;;;8.57;4.28;;;9.70;99.90;;;;;;5034784;28;20120;-57
2021/12/29 12:32:41;;;;;;;11.45;5.70;;;9.70;99.90;;;;;;5033315;28;20059;-57
2021/12/29 12:35:06;;;;;;;14.10;6.20;;;9.70;99.90;;;;;;5032172;28;20049;-56
2021/12/29 12:37:41;;;;;;;12.60;6.63;;;9.80;99.90;;;;;;5033591;28;20033;-58
2021/12/29 12:40:21;;;;;;;12.95;5.93;;;9.80;99.90;;;;;;5032675;28;20044;-57
2021/12/29 12:43:10;;;;;;;12.68;5.55;;;9.80;99.90;;;;;;5032663;28;20053;-58
2021/12/29 12:45:38;;;;;;;8.27;3.78;;;9.80;99.90;;;;;;5032624;28;20025;-57
2021/12/29 12:48:13;;;;;;;7.90;4.30;;;9.90;99.90;;;;;;5032073;28;20029;-57
2021/12/29 12:50:41;;;;;;;8.18;4.88;;;9.90;99.90;;;;;;5032070;28;20102;-58
2021/12/29 12:53:07;;;;;;;8.38;4.72;;;9.90;99.90;;;;;;5032401;28;20592;-58
2021/12/29 12:55:48;;;;;;;4.72;4.28;;;9.90;99.90;;;;;;5032730;28;20030;-58
2021/12/29 12:58:17;;;;;;;7.85;3.47;;;9.90;99.90;;;;;;5032932;28;20025;-58
2021/12/29 13:01:01;;;;;;;7.97;5.05;;;9.90;99.90;;;;;;5033180;28;20433;-58